createdAt,value
2024-05-09T00:01:09.236Z,101310.16
2024-05-09T00:03:38.542Z,101296.63
2024-05-09T00:06:08.097Z,101300.59
2024-05-09T00:08:37.486Z,101309.84
2024-05-09T00:11:09.448Z,101306.84
2024-05-09T00:13:38.618Z,101307.72
2024-05-09T00:16:09.173Z,101304.91
2024-05-09T00:18:38.456Z,101302.41
2024-05-09T00:21:08.859Z,101301.94
2024-05-09T00:23:38.058Z,101301.59
2024-05-09T00:26:10.070Z,101306.22
2024-05-09T00:28:39.260Z,101311.31
2024-05-09T00:31:08.440Z,101307.44
2024-05-09T00:33:37.848Z,101313.09
2024-05-09T00:36:07.874Z,101320.44
2024-05-09T00:38:37.319Z,101311.88
2024-05-09T00:41:06.908Z,101317.59
2024-05-09T00:43:38.684Z,101314.38
2024-05-09T00:46:08.676Z,101317.41
2024-05-09T00:48:38.223Z,101319.72
2024-05-09T00:51:08.613Z,101304.84
2024-05-09T00:53:38.062Z,101309.38
2024-05-09T00:56:08.100Z,101302.53
2024-05-09T00:58:40.698Z,101307.41
2024-05-09T01:01:10.779Z,101301.03
2024-05-09T01:03:40.187Z,101296.06
2024-05-09T01:06:09.455Z,101303.53
2024-05-09T01:08:38.736Z,101306.69
2024-05-09T01:11:08.065Z,101300.94
2024-05-09T01:13:39.868Z,101299.53
2024-05-09T01:16:09.277Z,101302.84
2024-05-09T01:18:38.612Z,101303.25
2024-05-09T01:21:09.481Z,101303.47
2024-05-09T01:23:41.644Z,101303.34
2024-05-09T01:26:10.956Z,101303.06
2024-05-09T01:28:40.128Z,101307.66
2024-05-09T01:31:15.248Z,101308.63
2024-05-09T01:33:45.128Z,101310.16
2024-05-09T01:36:14.449Z,101312.97
2024-05-09T01:38:46.169Z,101316.25
2024-05-09T01:41:15.431Z,101307.66
2024-05-09T01:43:44.680Z,101315.31
2024-05-09T01:46:15.387Z,101321.72
2024-05-09T01:48:44.675Z,101319.78
2024-05-09T01:51:14.049Z,101318.00
2024-05-09T01:53:46.475Z,101318.22
2024-05-09T01:56:15.716Z,101315.03
2024-05-09T01:58:46.112Z,101317.25
2024-05-09T02:01:15.439Z,101323.00
2024-05-09T02:03:47.494Z,101323.94
2024-05-09T02:06:17.020Z,101320.06
2024-05-09T02:08:48.820Z,101324.03
2024-05-09T02:11:18.193Z,101319.31
2024-05-09T02:13:47.478Z,101325.28
2024-05-09T02:16:17.244Z,101327.84
2024-05-09T02:18:46.449Z,101326.00
2024-05-09T02:21:15.722Z,101325.66
2024-05-09T02:23:45.008Z,101325.53
2024-05-09T02:26:16.908Z,101346.66
2024-05-09T02:28:46.251Z,101345.38
2024-05-09T02:31:15.760Z,101335.31
2024-05-09T02:33:42.601Z,101340.34
2024-05-09T02:36:12.587Z,101335.94
2024-05-09T02:38:39.607Z,101331.31
2024-05-09T02:41:08.847Z,101336.25
2024-05-09T02:43:38.036Z,101338.78
2024-05-09T02:46:07.555Z,101334.66
2024-05-09T02:48:34.317Z,101329.75
2024-05-09T02:51:04.554Z,101329.66
2024-05-09T02:53:31.426Z,101329.53
2024-05-09T02:56:00.862Z,101330.94
2024-05-09T02:58:27.522Z,101334.09
2024-05-09T03:00:59.440Z,101329.22
2024-05-09T03:03:26.681Z,101338.78
2024-05-09T03:05:56.250Z,101333.94
2024-05-09T03:08:23.025Z,101340.06
2024-05-09T03:10:52.280Z,101337.38
2024-05-09T03:13:19.334Z,101336.25
2024-05-09T03:15:48.474Z,101338.81
2024-05-09T03:18:17.755Z,101337.97
2024-05-09T03:20:47.096Z,101334.41
2024-05-09T03:23:13.883Z,101347.03
2024-05-09T03:25:43.348Z,101341.41
2024-05-09T03:28:11.289Z,101340.19
2024-05-09T03:30:42.853Z,101342.66
2024-05-09T03:33:10.560Z,101333.78
2024-05-09T03:35:42.579Z,101344.25
2024-05-09T03:38:11.938Z,101345.44
2024-05-09T03:40:47.628Z,101341.81
2024-05-09T03:43:17.862Z,101339.97
2024-05-09T03:45:47.564Z,101338.09
2024-05-09T03:48:14.555Z,101335.91
2024-05-09T03:50:46.646Z,101340.66
2024-05-09T03:53:14.690Z,101335.41
2024-05-09T03:55:44.086Z,101340.25
2024-05-09T03:58:12.802Z,101343.47
2024-05-09T04:00:42.535Z,101342.09
2024-05-09T04:03:11.476Z,101347.16
2024-05-09T04:05:43.781Z,101350.47
2024-05-09T04:08:14.283Z,101343.56
2024-05-09T04:10:43.610Z,101341.91
2024-05-09T04:13:10.958Z,101350.06
2024-05-09T04:15:40.227Z,101349.22
2024-05-09T04:18:07.287Z,101343.44
2024-05-09T04:20:39.695Z,101355.22
2024-05-09T04:23:10.775Z,101352.84
2024-05-09T04:25:45.331Z,101352.81
2024-05-09T04:28:12.745Z,101359.81
2024-05-09T04:30:42.837Z,101350.78
2024-05-09T04:33:12.171Z,101362.69
2024-05-09T04:35:44.586Z,101359.09
2024-05-09T04:38:12.017Z,101356.53
2024-05-09T04:40:44.048Z,101358.06
2024-05-09T04:43:15.070Z,101367.31
2024-05-09T04:45:44.505Z,101359.63
2024-05-09T04:48:11.600Z,101366.50
2024-05-09T04:50:41.235Z,101365.72
2024-05-09T04:53:10.199Z,101378.88
2024-05-09T04:55:40.809Z,101369.97
2024-05-09T04:58:11.533Z,101372.09
2024-05-09T05:00:41.559Z,101383.41
2024-05-09T05:03:12.872Z,101376.19
2024-05-09T05:05:45.599Z,101379.00
2024-05-09T05:08:13.888Z,101379.16
2024-05-09T05:10:43.517Z,101378.69
2024-05-09T05:13:16.357Z,101380.97
2024-05-09T05:15:45.810Z,101373.63
2024-05-09T05:18:12.512Z,101381.56
2024-05-09T05:20:41.756Z,101373.97
2024-05-09T05:23:10.949Z,101378.22
2024-05-09T05:25:40.318Z,101374.25
2024-05-09T05:28:07.373Z,101365.97
2024-05-09T05:30:39.974Z,101370.94
2024-05-09T05:33:09.792Z,101366.59
2024-05-09T05:35:39.759Z,101373.91
2024-05-09T05:38:07.544Z,101382.22
2024-05-09T05:40:38.569Z,101371.19
2024-05-09T05:43:07.339Z,101368.53
2024-05-09T05:45:39.507Z,101366.78
2024-05-09T05:48:07.582Z,101375.91
2024-05-09T05:50:38.480Z,101371.16
2024-05-09T05:53:07.633Z,101377.06
2024-05-09T05:55:37.691Z,101375.41
2024-05-09T05:58:04.803Z,101370.03
2024-05-09T06:00:38.380Z,101365.66
2024-05-09T06:03:10.218Z,101368.00
2024-05-09T06:05:43.197Z,101376.63
2024-05-09T06:08:10.293Z,101374.47
2024-05-09T06:10:41.088Z,101379.19
2024-05-09T06:13:10.467Z,101380.09
2024-05-09T06:15:39.927Z,101378.63
2024-05-09T06:18:10.890Z,101383.22
2024-05-09T06:20:43.440Z,101376.91
2024-05-09T06:23:11.013Z,101377.00
2024-05-09T06:25:41.800Z,101383.94
2024-05-09T06:28:08.457Z,101378.09
2024-05-09T06:30:42.201Z,101382.72
2024-05-09T06:33:14.558Z,101387.84
2024-05-09T06:35:45.848Z,101382.69
2024-05-09T06:38:12.961Z,101380.97
2024-05-09T06:40:44.182Z,101374.06
2024-05-09T06:43:12.042Z,101375.44
2024-05-09T06:45:41.709Z,101370.88
2024-05-09T06:48:09.800Z,101380.88
2024-05-09T06:50:42.498Z,101376.31
2024-05-09T06:53:09.500Z,101382.47
2024-05-09T06:55:39.074Z,101371.88
2024-05-09T06:58:07.071Z,101371.31
2024-05-09T07:00:39.768Z,101363.41
2024-05-09T07:03:11.640Z,101373.16
2024-05-09T07:05:42.702Z,101372.03
2024-05-09T07:08:12.568Z,101362.56
2024-05-09T07:10:39.407Z,101365.66
2024-05-09T07:13:10.993Z,101361.16
2024-05-09T07:15:38.300Z,101372.78
2024-05-09T07:18:13.832Z,101378.75
2024-05-09T07:20:43.699Z,101362.22
2024-05-09T07:23:13.531Z,101360.69
2024-05-09T07:25:41.420Z,101367.41
2024-05-09T07:28:13.874Z,101366.94
2024-05-09T07:30:40.561Z,101359.28
2024-05-09T07:33:10.029Z,101364.94
2024-05-09T07:35:36.859Z,101366.03
2024-05-09T07:38:08.775Z,101361.84
2024-05-09T07:40:37.125Z,101374.06
2024-05-09T07:43:06.916Z,101359.84
2024-05-09T07:49:45.067Z,101353.38
2024-05-09T07:53:07.633Z,101354.84
2024-05-09T07:53:57.053Z,101351.00
2024-05-09T07:56:26.847Z,101345.28
2024-05-09T07:58:56.537Z,101338.84
2024-05-09T08:01:26.575Z,101346.00
2024-05-09T08:03:56.415Z,101341.84
2024-05-09T08:06:23.520Z,101338.13
2024-05-09T08:08:55.885Z,101333.09
2024-05-09T08:11:23.770Z,101327.72
2024-05-09T08:13:53.095Z,101326.44
2024-05-09T08:16:19.928Z,101325.06
2024-05-09T08:18:49.303Z,101319.16
2024-05-09T08:21:15.979Z,101324.63
2024-05-09T08:23:45.173Z,101321.06
2024-05-09T08:26:14.494Z,101326.19
2024-05-09T08:28:43.664Z,101325.78
2024-05-09T08:31:11.640Z,101331.22
2024-05-09T08:33:46.551Z,101323.66
2024-05-09T08:36:13.776Z,101317.09
2024-05-09T08:38:42.922Z,101325.50
2024-05-09T08:41:09.551Z,101324.13
2024-05-09T08:43:42.117Z,101327.31
2024-05-09T08:46:09.050Z,101321.06
2024-05-09T08:48:39.411Z,101327.25
2024-05-09T08:51:06.962Z,101310.81
2024-05-09T08:53:36.177Z,101314.09
2024-05-09T08:56:02.892Z,101317.84
2024-05-09T08:58:33.088Z,101313.69
2024-05-09T09:01:04.027Z,101302.81
2024-05-09T09:03:36.008Z,101302.56
2024-05-09T09:06:06.522Z,101311.84
2024-05-09T09:08:35.796Z,101298.91
2024-05-09T09:11:02.949Z,101304.00
2024-05-09T09:13:32.206Z,101305.81
2024-05-09T09:15:59.858Z,101304.28
2024-05-09T09:18:33.050Z,101307.16
2024-05-09T09:20:59.988Z,101304.22
2024-05-09T09:23:30.444Z,101304.44
2024-05-09T09:25:58.662Z,101308.66
2024-05-09T09:28:28.058Z,101313.00
2024-05-09T09:31:01.457Z,101307.22
2024-05-09T09:33:35.928Z,101300.00
2024-05-09T09:36:03.241Z,101305.41
2024-05-09T09:38:34.055Z,101297.81
2024-05-09T09:41:06.156Z,101300.53
2024-05-09T09:43:36.036Z,101302.91
2024-05-09T09:46:06.322Z,101301.56
2024-05-09T09:48:41.394Z,101299.47
2024-05-09T09:51:08.427Z,101302.09
2024-05-09T09:53:38.210Z,101301.06
2024-05-09T09:56:07.434Z,101299.91
2024-05-09T09:58:37.536Z,101287.84
2024-05-09T10:01:04.696Z,101299.59
2024-05-09T10:03:34.468Z,101299.03
2024-05-09T10:06:05.525Z,101298.34
2024-05-09T10:08:34.888Z,101301.03
2024-05-09T10:11:04.365Z,101298.00
2024-05-09T10:13:37.185Z,101285.75
2024-05-09T10:16:08.727Z,101303.81
2024-05-09T10:18:42.092Z,101306.22
2024-05-09T10:21:18.686Z,101298.69
2024-05-09T10:23:59.532Z,101292.91
2024-05-09T10:26:33.722Z,101289.34
2024-05-09T10:29:03.539Z,101292.66
2024-05-09T10:31:30.420Z,101283.03
2024-05-09T10:33:59.923Z,101285.81
2024-05-09T10:36:29.299Z,101278.16
2024-05-09T10:38:58.471Z,101282.78
2024-05-09T10:41:25.292Z,101283.00
2024-05-09T10:43:54.722Z,101277.69
2024-05-09T10:46:21.862Z,101272.78
2024-05-09T10:48:51.335Z,101281.91
2024-05-09T10:51:19.089Z,101275.22
2024-05-09T10:53:52.416Z,101265.44
2024-05-09T10:56:19.088Z,101274.66
2024-05-09T10:58:48.273Z,101268.75
2024-05-09T11:01:16.657Z,101268.63
2024-05-09T11:03:49.851Z,101260.56
2024-05-09T11:06:18.049Z,101258.13
2024-05-09T11:08:51.349Z,101261.94
2024-05-09T11:11:18.201Z,101260.81
2024-05-09T11:13:47.441Z,101256.91
2024-05-09T11:16:19.737Z,101249.38
2024-05-09T11:18:56.404Z,101248.91
2024-05-09T11:21:24.233Z,101238.50
2024-05-09T11:23:56.205Z,101243.06
2024-05-09T11:26:25.088Z,101252.16
2024-05-09T11:28:54.622Z,101231.28
2024-05-09T11:31:21.727Z,101236.94
2024-05-09T11:33:51.215Z,101246.97
2024-05-09T11:36:17.907Z,101243.31
2024-05-09T11:38:47.230Z,101234.41
2024-05-09T11:41:19.270Z,101236.47
2024-05-09T11:43:48.482Z,101227.59
2024-05-09T11:46:15.323Z,101225.31
2024-05-09T11:48:44.860Z,101217.88
2024-05-09T11:51:11.553Z,101216.81
2024-05-09T11:53:40.719Z,101209.34
2024-05-09T11:56:07.621Z,101215.34
2024-05-09T11:58:39.568Z,101213.88
2024-05-09T12:01:06.429Z,101224.75
2024-05-09T12:03:37.898Z,101209.78
2024-05-09T12:06:04.971Z,101211.25
2024-05-09T12:08:34.311Z,101210.00
2024-05-09T12:11:01.220Z,101199.94
2024-05-09T12:13:30.635Z,101199.47
2024-05-09T12:15:59.893Z,101196.66
2024-05-09T12:18:29.243Z,101197.47
2024-05-09T12:20:55.957Z,101192.25
2024-05-09T12:23:25.118Z,101193.44
2024-05-09T12:25:52.061Z,101206.22
2024-05-09T12:28:21.955Z,101202.19
2024-05-09T12:30:49.831Z,101192.78
2024-05-09T12:33:22.369Z,101179.94
2024-05-09T12:35:50.950Z,101181.16
2024-05-09T12:38:20.725Z,101186.94
2024-05-09T12:40:47.401Z,101188.97
2024-05-09T12:43:16.751Z,101165.75
2024-05-09T12:45:43.483Z,101157.66
2024-05-09T12:48:13.493Z,101158.44
2024-05-09T12:50:43.170Z,101175.34
2024-05-09T12:53:12.548Z,101167.34
2024-05-09T12:55:47.985Z,101162.91
2024-05-09T12:58:24.131Z,101162.38
2024-05-09T13:00:51.854Z,101157.63
2024-05-09T13:03:21.583Z,101152.50
2024-05-09T13:05:51.824Z,101152.38
2024-05-09T13:08:22.062Z,101139.59
2024-05-09T13:10:50.106Z,101131.09
2024-05-09T13:13:19.732Z,101132.03
2024-05-09T13:15:46.658Z,101128.75
2024-05-09T13:18:16.042Z,101128.84
2024-05-09T13:20:42.716Z,101131.56
2024-05-09T13:23:14.531Z,101124.69
2024-05-09T13:25:41.255Z,101128.72
2024-05-09T13:28:10.595Z,101123.91
2024-05-09T13:30:40.728Z,101120.63
2024-05-09T13:33:12.789Z,101118.16
2024-05-09T13:35:45.633Z,101114.50
2024-05-09T13:38:21.851Z,101113.31
2024-05-09T13:40:49.244Z,101116.88
2024-05-09T13:43:19.247Z,101112.50
2024-05-09T13:45:46.398Z,101113.28
2024-05-09T13:48:15.885Z,101115.03
2024-05-09T13:50:42.733Z,101112.22
2024-05-09T13:53:11.883Z,101102.69
2024-05-09T13:55:41.115Z,101097.47
2024-05-09T13:58:10.923Z,101097.03
2024-05-09T14:00:45.917Z,101098.69
2024-05-09T14:03:19.704Z,101093.41
2024-05-09T14:05:48.041Z,101082.44
2024-05-09T14:08:19.425Z,101087.31
2024-05-09T14:10:49.299Z,101091.34
2024-05-09T14:13:18.898Z,101075.47
2024-05-09T14:15:46.005Z,101087.72
2024-05-09T14:18:15.482Z,101080.81
2024-05-09T14:20:42.699Z,101081.63
2024-05-09T14:23:12.360Z,101080.69
2024-05-09T14:25:42.341Z,101073.06
2024-05-09T14:28:15.325Z,101073.50
2024-05-09T14:30:42.785Z,101069.81
2024-05-09T14:33:12.501Z,101062.50
2024-05-09T14:35:39.418Z,101063.16
2024-05-09T14:38:09.902Z,101062.81
2024-05-09T14:40:42.248Z,101071.72
2024-05-09T14:43:16.449Z,101055.41
2024-05-09T14:45:43.965Z,101061.03
2024-05-09T14:48:14.524Z,101057.44
2024-05-09T14:50:42.050Z,101061.31
2024-05-09T14:53:12.775Z,101060.88
2024-05-09T14:55:41.702Z,101047.97
2024-05-09T14:58:13.111Z,101047.47
2024-05-09T15:00:46.581Z,101030.38
2024-05-09T15:03:20.086Z,101038.13
2024-05-09T15:05:47.879Z,101025.09
2024-05-09T15:08:19.548Z,101033.13
2024-05-09T15:10:46.685Z,101024.56
2024-05-09T15:13:17.048Z,101033.69
2024-05-09T15:15:46.745Z,101023.47
2024-05-09T15:18:16.300Z,101021.09
2024-05-09T15:20:43.902Z,101022.69
2024-05-09T15:23:13.304Z,101021.25
2024-05-09T15:25:40.421Z,101021.91
2024-05-09T15:28:10.042Z,101001.56
2024-05-09T15:30:37.364Z,101009.72
2024-05-09T15:33:09.654Z,101010.81
2024-05-09T15:35:41.051Z,101014.00
2024-05-09T15:38:11.144Z,101016.56
2024-05-09T15:40:40.395Z,101009.97
2024-05-09T15:43:11.683Z,101002.19
2024-05-09T15:45:39.410Z,101008.44
2024-05-09T15:48:12.520Z,100997.84
2024-05-09T15:50:41.633Z,101001.75
2024-05-09T15:53:13.085Z,100999.28
2024-05-09T15:55:41.283Z,101001.53
2024-05-09T15:58:11.247Z,100996.81
2024-05-09T16:00:41.615Z,100996.53
2024-05-09T16:03:15.984Z,100982.44
2024-05-09T16:05:43.761Z,100987.31
2024-05-09T16:08:14.355Z,100979.56
2024-05-09T16:10:44.466Z,100997.91
2024-05-09T16:13:14.884Z,100988.88
2024-05-09T16:15:43.599Z,100981.53
2024-05-09T16:18:15.933Z,100979.88
2024-05-09T16:20:44.834Z,100975.44
2024-05-09T16:23:15.686Z,100972.28
2024-05-09T16:25:45.251Z,100988.25
2024-05-09T16:28:15.058Z,100983.56
2024-05-09T16:30:42.133Z,100973.84
2024-05-09T16:33:11.797Z,100973.09
2024-05-09T16:35:41.256Z,100974.03
2024-05-09T16:38:10.662Z,100966.78
2024-05-09T16:40:40.321Z,100969.84
2024-05-09T16:43:11.741Z,100976.66
2024-05-09T16:45:40.260Z,100982.25
2024-05-09T16:48:11.326Z,100970.91
2024-05-09T16:50:38.719Z,100965.31
2024-05-09T16:53:10.668Z,100971.94
2024-05-09T16:55:37.575Z,100971.88
2024-05-09T16:58:08.570Z,100972.28
2024-05-09T17:00:41.076Z,100965.34
2024-05-09T17:03:15.555Z,100964.97
2024-05-09T17:05:43.473Z,100965.59
2024-05-09T17:08:19.652Z,100965.38
2024-05-09T17:10:48.307Z,100972.50
2024-05-09T17:13:18.159Z,100963.47
2024-05-09T17:15:47.814Z,100969.66
2024-05-09T17:18:17.379Z,100966.31
2024-05-09T17:20:46.637Z,100963.13
2024-05-09T17:23:15.817Z,100961.47
2024-05-09T17:25:45.441Z,100969.31
2024-05-09T17:28:12.540Z,100961.16
2024-05-09T17:30:42.828Z,100965.06
2024-05-09T17:33:10.922Z,100960.75
2024-05-09T17:35:41.154Z,100960.97
2024-05-09T17:38:07.988Z,100967.78
2024-05-09T17:40:40.256Z,100963.03
2024-05-09T17:43:08.848Z,100965.91
2024-05-09T17:45:40.959Z,100963.88
2024-05-09T17:48:09.417Z,100960.94
2024-05-09T17:50:38.952Z,100969.03
2024-05-09T17:53:06.563Z,100971.09
2024-05-09T17:55:36.518Z,100975.88
2024-05-09T17:58:06.645Z,100967.59
2024-05-09T18:00:39.911Z,100965.00
2024-05-09T18:03:10.687Z,100971.13
2024-05-09T18:05:40.401Z,100957.72
2024-05-09T18:08:08.129Z,100974.25
2024-05-09T18:10:39.690Z,100971.38
2024-05-09T18:13:10.289Z,100965.69
2024-05-09T18:15:40.191Z,100969.22
2024-05-09T18:18:08.008Z,100966.75
2024-05-09T18:20:43.765Z,100975.50
2024-05-09T18:23:13.266Z,100966.44
2024-05-09T18:25:43.083Z,100966.25
2024-05-09T18:28:12.480Z,100962.38
2024-05-09T18:30:43.579Z,100965.91
2024-05-09T18:33:11.475Z,100959.41
2024-05-09T18:35:41.718Z,100966.53
2024-05-09T18:38:09.155Z,100968.03
2024-05-09T18:40:40.266Z,100967.84
2024-05-09T18:43:09.196Z,100976.66
2024-05-09T18:45:41.228Z,100972.25
2024-05-09T18:48:09.817Z,100977.00
2024-05-09T18:50:41.339Z,100976.06
2024-05-09T18:53:09.929Z,100982.34
2024-05-09T18:55:39.419Z,100975.72
2024-05-09T18:58:07.317Z,100991.81
2024-05-09T19:00:39.663Z,100990.91
2024-05-09T19:03:13.268Z,100985.59
2024-05-09T19:05:45.543Z,101002.41
2024-05-09T19:08:13.143Z,100998.03
2024-05-09T19:10:42.433Z,100999.09
2024-05-09T19:13:12.362Z,100990.88
2024-05-09T19:15:44.153Z,101001.88
2024-05-09T19:18:14.540Z,100996.00
2024-05-09T19:20:44.498Z,101002.16
2024-05-09T19:23:11.648Z,101002.69
2024-05-09T19:25:41.216Z,101001.38
2024-05-09T19:28:07.993Z,100991.56
2024-05-09T19:30:41.138Z,101003.06
2024-05-09T19:33:10.927Z,100996.44
2024-05-09T19:35:44.471Z,101004.47
2024-05-09T19:38:11.768Z,101003.63
2024-05-09T19:40:41.243Z,101008.44
2024-05-09T19:43:08.209Z,101004.44
2024-05-09T19:45:37.478Z,101011.72
2024-05-09T19:48:05.479Z,101006.09
2024-05-09T19:50:41.687Z,101005.91
2024-05-09T19:53:14.229Z,100997.22
2024-05-09T19:55:43.869Z,101007.56
2024-05-09T19:58:11.417Z,101014.56
2024-05-09T20:00:43.518Z,101020.38
2024-05-09T20:03:12.173Z,101012.19
2024-05-09T20:05:41.737Z,101023.59
2024-05-09T20:08:08.443Z,101017.69
2024-05-09T20:10:40.536Z,101026.81
2024-05-09T20:13:08.186Z,101032.38
2024-05-09T20:15:38.571Z,101025.84
2024-05-09T20:18:06.313Z,101022.19
2024-05-09T20:20:41.195Z,101022.31
2024-05-09T20:23:10.100Z,101028.09
2024-05-09T20:25:42.050Z,101027.72
2024-05-09T20:28:08.928Z,101027.34
2024-05-09T20:30:38.345Z,101030.09
2024-05-09T20:33:07.289Z,101032.47
2024-05-09T20:35:37.880Z,101034.81
2024-05-09T20:38:05.304Z,101041.25
2024-05-09T20:40:37.988Z,101039.91
2024-05-09T20:43:09.492Z,101040.59
2024-05-09T20:45:39.948Z,101032.41
2024-05-09T20:48:08.759Z,101035.22
2024-05-09T20:50:41.285Z,101038.03
2024-05-09T20:53:10.735Z,101037.50
2024-05-09T20:55:40.246Z,101037.44
2024-05-09T20:58:09.941Z,101037.72
2024-05-09T21:00:42.943Z,101043.44
2024-05-09T21:03:12.736Z,101035.97
2024-05-09T21:05:42.757Z,101039.78
2024-05-09T21:08:09.470Z,101042.31
2024-05-09T21:10:39.199Z,101049.59
2024-05-09T21:13:06.910Z,101058.03
2024-05-09T21:15:39.300Z,101042.53
2024-05-09T21:18:06.120Z,101065.28
2024-05-09T21:20:35.527Z,101049.84
2024-05-09T21:23:02.737Z,101048.56
2024-05-09T21:25:32.443Z,101041.53
2024-05-09T21:27:59.412Z,101057.69
2024-05-09T21:30:38.402Z,101050.69
2024-05-09T21:33:13.476Z,101042.13
2024-05-09T21:35:44.651Z,101041.19
2024-05-09T21:38:13.660Z,101047.13
2024-05-09T21:40:43.302Z,101034.50
2024-05-09T21:43:10.110Z,101046.44
2024-05-09T21:45:39.408Z,101052.16
2024-05-09T21:48:13.485Z,101055.09
2024-05-09T21:50:42.970Z,101046.56
2024-05-09T21:53:10.354Z,101049.25
2024-05-09T21:55:39.615Z,101045.63
2024-05-09T21:58:06.457Z,101054.16
2024-05-09T22:00:38.379Z,101057.31
2024-05-09T22:03:06.736Z,101046.78
2024-05-09T22:05:39.246Z,101050.97
2024-05-09T22:08:07.262Z,101050.25
2024-05-09T22:10:37.224Z,101050.09
2024-05-09T22:13:05.216Z,101045.41
2024-05-09T22:15:37.170Z,101048.78
2024-05-09T22:18:05.935Z,101050.81
2024-05-09T22:20:38.466Z,101052.09
2024-05-09T22:23:09.297Z,101045.38
2024-05-09T22:25:39.154Z,101057.28
2024-05-09T22:28:06.803Z,101062.28
2024-05-09T22:30:39.172Z,101049.44
2024-05-09T22:33:10.861Z,101051.59
2024-05-09T22:35:41.419Z,101053.78
2024-05-09T22:38:10.641Z,101053.66
2024-05-09T22:40:47.286Z,101052.69
2024-05-09T22:43:21.043Z,101045.75
2024-05-09T22:45:52.146Z,101054.09
2024-05-09T22:48:19.443Z,101055.81
2024-05-09T22:50:48.771Z,101049.94
2024-05-09T22:53:18.108Z,101052.19
2024-05-09T22:55:48.687Z,101051.97
2024-05-09T22:58:15.618Z,101051.59
2024-05-09T23:00:45.071Z,101047.00
2024-05-09T23:03:11.855Z,101050.75
2024-05-09T23:05:41.044Z,101053.41
2024-05-09T23:08:08.609Z,101049.81
2024-05-09T23:10:40.438Z,101038.63
2024-05-09T23:13:08.165Z,101043.59
2024-05-09T23:15:38.751Z,101057.25
2024-05-09T23:18:06.261Z,101045.53
2024-05-09T23:20:38.884Z,101046.09
2024-05-09T23:23:06.931Z,101039.19
2024-05-09T23:25:36.303Z,101040.34
2024-05-09T23:28:06.524Z,101047.94
2024-05-09T23:30:39.587Z,101039.81
2024-05-09T23:33:08.292Z,101042.19
2024-05-09T23:35:37.938Z,101041.41
2024-05-09T23:38:05.022Z,101051.75
2024-05-09T23:40:38.820Z,101038.72
2024-05-09T23:43:11.390Z,101043.34
2024-05-09T23:45:41.770Z,101033.38
2024-05-09T23:48:09.703Z,101036.34
2024-05-09T23:50:40.465Z,101022.00
2024-05-09T23:53:09.361Z,101028.56
2024-05-09T23:55:39.697Z,101027.31
2024-05-09T23:58:06.902Z,101035.19
